createdAt,value
2023-04-28T00:01:35.149Z,7.82
2023-04-28T00:04:02.551Z,7.73
2023-04-28T00:06:30.975Z,7.65
2023-04-28T00:08:58.001Z,7.55
2023-04-28T00:11:25.011Z,7.46
2023-04-28T00:13:52.534Z,7.37
2023-04-28T00:16:19.513Z,7.30
2023-04-28T00:18:46.636Z,7.18
2023-04-28T00:21:13.750Z,7.67
2023-04-28T00:23:40.695Z,8.33
2023-04-28T00:26:07.698Z,8.46
2023-04-28T00:28:35.172Z,8.30
2023-04-28T00:31:02.631Z,8.06
2023-04-28T00:33:29.811Z,7.81
2023-04-28T00:36:01.428Z,7.55
2023-04-28T00:38:29.093Z,7.30
2023-04-28T00:40:56.272Z,7.07
2023-04-28T00:43:23.322Z,6.86
2023-04-28T00:45:50.660Z,6.62
2023-04-28T00:48:18.300Z,7.00
2023-04-28T00:50:45.863Z,7.58
2023-04-28T00:53:12.920Z,7.66
2023-04-28T00:55:39.936Z,7.48
2023-04-28T00:58:07.279Z,7.19
2023-04-28T01:00:34.590Z,6.88
2023-04-28T01:03:01.950Z,6.60
2023-04-28T01:05:31.847Z,6.36
2023-04-28T01:08:00.019Z,6.16
2023-04-28T01:10:27.036Z,5.96
2023-04-28T01:12:54.099Z,6.38
2023-04-28T01:15:21.403Z,6.99
2023-04-28T01:17:49.403Z,7.09
2023-04-28T01:20:16.501Z,6.94
2023-04-28T01:22:43.758Z,6.67
2023-04-28T01:25:10.917Z,6.42
2023-04-28T01:27:38.348Z,6.18
2023-04-28T01:30:06.950Z,5.96
2023-04-28T01:32:34.667Z,5.75
2023-04-28T01:35:02.909Z,5.52
2023-04-28T01:37:30.061Z,5.92
2023-04-28T01:39:57.039Z,6.52
2023-04-28T01:42:25.363Z,6.62
2023-04-28T01:44:53.294Z,6.46
2023-04-28T01:47:20.690Z,6.25
2023-04-28T01:49:50.168Z,6.00
2023-04-28T01:52:19.842Z,5.73
2023-04-28T01:54:47.487Z,5.52
2023-04-28T01:57:15.531Z,5.32
2023-04-28T01:59:44.491Z,5.11
2023-04-28T02:02:12.064Z,5.57
2023-04-28T02:04:39.857Z,6.21
2023-04-28T02:07:07.279Z,6.33
2023-04-28T02:09:34.313Z,6.14
2023-04-28T02:12:02.446Z,5.88
2023-04-28T02:14:32.391Z,5.62
2023-04-28T02:16:59.543Z,5.35
2023-04-28T02:19:26.890Z,5.12
2023-04-28T02:21:53.932Z,4.90
2023-04-28T02:24:21.671Z,5.29
2023-04-28T02:26:50.447Z,5.88
2023-04-28T02:29:18.245Z,5.98
2023-04-28T02:31:45.483Z,5.81
2023-04-28T02:34:12.452Z,5.57
2023-04-28T02:36:39.578Z,5.32
2023-04-28T02:39:07.588Z,5.09
2023-04-28T02:41:35.000Z,4.87
2023-04-28T02:44:02.051Z,4.65
2023-04-28T02:46:29.398Z,5.05
2023-04-28T02:48:58.027Z,5.63
2023-04-28T02:51:25.206Z,5.70
2023-04-28T02:53:52.237Z,5.51
2023-04-28T02:56:19.249Z,5.28
2023-04-28T02:58:46.452Z,5.02
2023-04-28T03:01:13.606Z,4.76
2023-04-28T03:03:40.995Z,4.49
2023-04-28T03:06:08.308Z,4.82
2023-04-28T03:08:35.474Z,5.37
2023-04-28T03:11:02.738Z,5.43
2023-04-28T03:13:30.145Z,5.23
2023-04-28T03:15:57.548Z,4.95
2023-04-28T03:18:24.876Z,4.69
2023-04-28T03:20:51.886Z,4.45
2023-04-28T03:23:19.996Z,4.19
2023-04-28T03:25:46.951Z,4.56
2023-04-28T03:28:13.961Z,5.13
2023-04-28T03:30:41.001Z,5.19
2023-04-28T03:33:08.037Z,5.02
2023-04-28T03:35:35.121Z,4.78
2023-04-28T03:38:02.396Z,4.55
2023-04-28T03:40:29.616Z,4.34
2023-04-28T03:43:11.872Z,4.13
2023-04-28T03:46:06.767Z,4.87
2023-04-28T03:48:33.839Z,5.44
2023-04-28T03:51:01.149Z,5.52
2023-04-28T03:53:28.381Z,5.34
2023-04-28T03:55:55.395Z,5.13
2023-04-28T03:58:22.406Z,4.95
2023-04-28T04:00:50.135Z,4.83
2023-04-28T04:03:17.557Z,4.72
2023-04-28T04:05:44.999Z,5.26
2023-04-28T04:08:12.008Z,6.02
2023-04-28T04:10:38.939Z,6.25
2023-04-28T04:13:05.987Z,6.21
2023-04-28T04:15:33.108Z,6.07
2023-04-28T04:18:00.683Z,5.87
2023-04-28T04:20:32.518Z,5.66
2023-04-28T04:22:59.424Z,5.54
2023-04-28T04:25:26.399Z,6.11
2023-04-28T04:27:56.078Z,6.91
2023-04-28T04:30:22.998Z,7.30
2023-04-28T04:32:50.011Z,7.65
2023-04-28T04:35:17.295Z,7.98
2023-04-28T04:37:44.659Z,8.29
2023-04-28T04:40:12.319Z,8.57
2023-04-28T04:42:44.292Z,8.85
2023-04-28T04:45:18.361Z,9.07
2023-04-28T04:47:45.482Z,9.98
2023-04-28T04:50:13.144Z,10.96
2023-04-28T04:52:40.181Z,11.37
2023-04-28T04:55:08.040Z,11.47
2023-04-28T04:57:35.020Z,11.52
2023-04-28T05:00:02.132Z,11.58
2023-04-28T05:02:29.843Z,11.67
2023-04-28T05:05:08.195Z,11.79
2023-04-28T05:07:44.340Z,11.84
2023-04-28T05:10:14.202Z,11.82
2023-04-28T05:12:41.657Z,11.86
2023-04-28T05:15:09.168Z,11.96
2023-04-28T05:17:38.088Z,12.08
2023-04-28T05:20:05.906Z,12.29
2023-04-28T05:22:33.199Z,12.47
2023-04-28T05:25:00.307Z,12.73
2023-04-28T05:27:27.230Z,12.98
2023-04-28T05:29:54.222Z,13.23
2023-04-28T05:32:21.606Z,13.60
2023-04-28T05:34:48.609Z,13.97
2023-04-28T05:37:15.860Z,14.30
2023-04-28T05:39:43.627Z,14.57
2023-04-28T05:42:10.542Z,14.90
2023-04-28T05:44:37.922Z,15.24
2023-04-28T05:47:04.879Z,15.60
2023-04-28T05:49:32.619Z,15.81
2023-04-28T05:51:59.547Z,16.01
2023-04-28T05:54:27.235Z,16.28
2023-04-28T05:56:55.745Z,16.62
2023-04-28T05:59:22.693Z,16.94
2023-04-28T06:01:50.964Z,17.28
2023-04-28T06:04:18.321Z,17.66
2023-04-28T06:06:47.303Z,17.95
2023-04-28T06:09:14.666Z,18.19
2023-04-28T06:11:41.834Z,18.39
2023-04-28T06:14:08.897Z,18.67
2023-04-28T06:16:36.022Z,18.74
2023-04-28T06:19:02.982Z,18.96
2023-04-28T06:21:30.123Z,19.38
2023-04-28T06:23:57.062Z,19.68
2023-04-28T06:26:24.264Z,19.96
2023-04-28T06:28:51.227Z,20.16
2023-04-28T06:31:18.151Z,20.26
2023-04-28T06:33:45.023Z,20.35
2023-04-28T06:36:14.188Z,20.47
2023-04-28T06:38:43.317Z,20.55
2023-04-28T06:41:11.458Z,20.56
2023-04-28T06:43:39.014Z,20.82
2023-04-28T06:46:12.430Z,21.26
2023-04-28T06:48:39.505Z,21.52
2023-04-28T06:51:06.572Z,21.70
2023-04-28T06:53:35.108Z,21.87
2023-04-28T06:56:03.012Z,22.04
2023-04-28T06:58:30.163Z,22.26
2023-04-28T07:00:57.156Z,22.29
2023-04-28T07:03:24.894Z,22.37
2023-04-28T07:05:51.884Z,22.45
2023-04-28T07:08:18.882Z,22.72
2023-04-28T07:10:45.797Z,22.86
2023-04-28T07:13:12.767Z,22.63
2023-04-28T07:15:39.758Z,22.46
2023-04-28T07:18:06.754Z,22.16
2023-04-28T07:20:33.634Z,21.79
2023-04-28T07:23:00.599Z,21.68
2023-04-28T07:25:27.507Z,21.04
2023-04-28T07:27:54.465Z,20.44
2023-04-28T07:30:28.031Z,19.70
2023-04-28T07:32:55.668Z,19.27
2023-04-28T07:35:22.804Z,19.07
2023-04-28T07:37:49.714Z,18.93
2023-04-28T07:40:16.802Z,18.94
2023-04-28T07:42:43.707Z,18.91
2023-04-28T07:45:10.863Z,18.37
2023-04-28T07:47:38.016Z,17.96
2023-04-28T07:50:06.664Z,18.11
2023-04-28T07:52:34.471Z,18.53
2023-04-28T07:55:02.524Z,18.97
2023-04-28T07:57:30.030Z,19.57
2023-04-28T07:59:57.238Z,20.23
2023-04-28T08:02:24.317Z,20.48
2023-04-28T08:04:51.543Z,20.45
2023-04-28T08:07:18.517Z,20.13
2023-04-28T08:09:47.294Z,19.73
2023-04-28T08:12:15.095Z,19.14
2023-04-28T08:14:42.162Z,18.75
2023-04-28T08:17:09.412Z,18.51
2023-04-28T08:19:36.512Z,18.33
2023-04-28T08:22:07.325Z,18.14
2023-04-28T08:24:34.544Z,17.91
2023-04-28T08:27:04.595Z,17.60
2023-04-28T08:29:32.095Z,17.23
2023-04-28T08:31:59.214Z,16.94
2023-04-28T08:34:26.112Z,16.82
2023-04-28T08:36:54.338Z,16.65
2023-04-28T08:39:23.537Z,16.48
2023-04-28T08:41:50.840Z,16.17
2023-04-28T08:44:18.721Z,16.48
2023-04-28T08:46:46.903Z,17.37
2023-04-28T08:49:18.652Z,18.16
2023-04-28T08:52:10.030Z,18.53
2023-04-28T08:54:37.135Z,18.43
2023-04-28T08:57:04.455Z,18.19
2023-04-28T08:59:31.948Z,17.98
2023-04-28T09:05:25.957Z,16.47
2023-04-28T09:07:53.159Z,16.65
2023-04-28T09:10:21.815Z,16.60
2023-04-28T09:12:51.160Z,16.57
2023-04-28T09:15:34.938Z,16.53
2023-04-28T09:18:03.414Z,16.34
2023-04-28T09:20:31.930Z,16.22
2023-04-28T09:23:21.874Z,16.13
2023-04-28T09:26:05.268Z,15.92
2023-04-28T09:28:32.824Z,15.76
2023-04-28T09:30:59.897Z,15.67
2023-04-28T09:33:27.361Z,15.52
2023-04-28T09:35:54.608Z,15.31
2023-04-28T09:38:22.168Z,15.34
2023-04-28T09:41:00.526Z,15.42
2023-04-28T09:43:32.291Z,15.27
2023-04-28T09:46:01.073Z,15.26
2023-04-28T09:48:35.580Z,15.39
2023-04-28T09:51:04.015Z,15.50
2023-04-28T09:53:31.248Z,15.67
2023-04-28T09:55:59.334Z,15.79
2023-04-28T09:58:27.463Z,15.97
2023-04-28T10:00:58.610Z,16.21
2023-04-28T10:03:32.056Z,16.25
2023-04-28T10:05:59.496Z,16.54
2023-04-28T10:08:28.038Z,17.09
2023-04-28T10:10:55.198Z,17.38
2023-04-28T10:13:22.873Z,17.55
2023-04-28T10:19:25.236Z,16.84
2023-04-28T10:22:04.406Z,17.11
2023-04-28T10:24:31.455Z,16.71
2023-04-28T10:27:05.769Z,16.44
2023-04-28T10:29:33.636Z,16.19
2023-04-28T10:32:15.800Z,16.02
2023-04-28T10:34:42.715Z,15.96
2023-04-28T10:37:09.903Z,16.04
2023-04-28T10:39:37.343Z,16.46
2023-04-28T10:42:04.410Z,17.25
2023-04-28T10:44:31.543Z,18.12
2023-04-28T10:47:09.721Z,18.41
2023-04-28T10:49:55.437Z,18.23
2023-04-28T10:52:35.547Z,18.22
2023-04-28T10:55:36.627Z,18.25
2023-04-28T10:58:16.285Z,18.02
2023-04-28T11:00:53.354Z,17.60
2023-04-28T11:03:40.764Z,17.26
2023-04-28T11:06:21.515Z,17.03
2023-04-28T11:08:48.789Z,16.73
2023-04-28T11:11:19.937Z,16.49
2023-04-28T11:13:47.258Z,16.34
2023-04-28T11:16:15.555Z,16.21
2023-04-28T11:18:55.258Z,16.09
2023-04-28T11:21:23.481Z,16.00
2023-04-28T11:23:50.587Z,16.01
2023-04-28T11:26:18.887Z,16.44
2023-04-28T11:28:56.857Z,17.15
2023-04-28T11:31:25.212Z,17.41
2023-04-28T11:33:56.999Z,17.54
2023-04-28T11:36:24.913Z,17.57
2023-04-28T11:38:51.969Z,17.67
2023-04-28T11:41:19.758Z,17.76
2023-04-28T11:43:47.745Z,17.78
2023-04-28T11:46:19.243Z,17.69
2023-04-28T11:48:46.611Z,17.99
2023-04-28T11:51:36.797Z,18.11
2023-04-28T11:54:04.832Z,17.81
2023-04-28T11:56:32.586Z,17.64
2023-04-28T11:59:04.876Z,17.51
2023-04-28T12:01:32.747Z,17.48
2023-04-28T12:03:59.875Z,17.52
2023-04-28T12:06:28.124Z,17.39
2023-04-28T12:08:55.606Z,17.50
2023-04-28T12:11:25.643Z,17.57
2023-04-28T12:14:06.856Z,17.39
2023-04-28T12:16:39.339Z,17.38
2023-04-28T12:19:10.037Z,17.39
2023-04-28T12:21:39.063Z,17.42
2023-04-28T12:24:16.136Z,17.76
2023-04-28T12:26:43.469Z,18.26
2023-04-28T12:29:10.832Z,18.58
2023-04-28T12:31:52.964Z,18.90
2023-04-28T12:34:20.758Z,18.97
2023-04-28T12:36:47.900Z,18.95
2023-04-28T12:39:16.608Z,18.90
2023-04-28T12:41:44.705Z,18.65
2023-04-28T12:44:11.626Z,18.51
2023-04-28T12:46:39.060Z,18.45
2023-04-28T12:49:06.134Z,18.36
2023-04-28T12:51:36.646Z,18.19
2023-04-28T12:54:05.584Z,18.04
2023-04-28T12:56:32.585Z,18.06
2023-04-28T12:59:02.681Z,18.06
2023-04-28T13:01:29.810Z,17.97
2023-04-28T13:03:57.161Z,17.82
2023-04-28T13:06:24.260Z,17.54
2023-04-28T13:08:51.144Z,17.41
2023-04-28T13:11:22.453Z,17.37
2023-04-28T13:13:50.188Z,17.26
2023-04-28T13:16:17.167Z,16.95
2023-04-28T13:18:44.388Z,16.74
2023-04-28T13:21:11.880Z,16.64
2023-04-28T13:23:39.159Z,16.56
2023-04-28T13:26:06.107Z,16.69
2023-04-28T13:28:33.223Z,16.96
2023-04-28T13:31:00.214Z,17.08
2023-04-28T13:33:31.309Z,17.07
2023-04-28T13:35:59.217Z,17.01
2023-04-28T13:38:26.917Z,17.04
2023-04-28T13:40:53.918Z,17.11
2023-04-28T13:43:20.938Z,17.04
2023-04-28T13:45:47.972Z,17.03
2023-04-28T13:48:14.894Z,17.07
2023-04-28T13:50:41.982Z,17.09
2023-04-28T13:53:09.324Z,17.24
2023-04-28T13:55:36.656Z,17.44
2023-04-28T13:58:05.213Z,17.61
2023-04-28T14:00:33.430Z,17.64
2023-04-28T14:03:00.985Z,17.59
2023-04-28T14:05:29.841Z,17.54
2023-04-28T14:07:58.870Z,17.44
2023-04-28T14:10:26.763Z,17.36
2023-04-28T14:12:53.878Z,17.17
2023-04-28T14:15:20.790Z,17.04
2023-04-28T14:17:48.760Z,16.89
2023-04-28T14:20:15.696Z,16.83
2023-04-28T14:22:42.866Z,16.93
2023-04-28T14:25:10.032Z,17.15
2023-04-28T14:27:37.310Z,17.43
2023-04-28T14:30:05.151Z,17.70
2023-04-28T14:32:32.585Z,17.89
2023-04-28T14:34:59.636Z,18.01
2023-04-28T14:37:26.861Z,18.06
2023-04-28T14:39:53.905Z,18.03
2023-04-28T14:42:21.032Z,17.95
2023-04-28T14:44:48.443Z,17.88
2023-04-28T14:47:15.934Z,17.77
2023-04-28T14:49:42.889Z,17.70
2023-04-28T14:52:10.030Z,17.62
2023-04-28T14:54:37.298Z,17.50
2023-04-28T14:57:04.264Z,17.34
2023-04-28T14:59:31.735Z,17.17
2023-04-28T15:01:58.793Z,17.19
2023-04-28T15:04:29.955Z,17.21
2023-04-28T15:06:57.262Z,17.23
2023-04-28T15:09:24.360Z,17.25
2023-04-28T15:11:51.829Z,17.28
2023-04-28T15:14:19.707Z,17.23
2023-04-28T15:16:47.330Z,17.31
2023-04-28T15:19:14.690Z,17.41
2023-04-28T15:21:41.717Z,17.33
2023-04-28T15:24:08.742Z,17.05
2023-04-28T15:26:35.640Z,16.81
2023-04-28T15:29:02.642Z,16.71
2023-04-28T15:31:29.898Z,16.67
2023-04-28T15:33:57.204Z,16.68
2023-04-28T15:36:24.163Z,16.60
2023-04-28T15:38:52.121Z,16.51
2023-04-28T15:41:19.114Z,16.42
2023-04-28T15:43:46.327Z,16.37
2023-04-28T15:46:16.967Z,16.23
2023-04-28T15:48:44.342Z,16.11
2023-04-28T15:51:11.616Z,16.09
2023-04-28T15:53:38.937Z,16.06
2023-04-28T15:56:06.560Z,15.97
2023-04-28T15:58:34.017Z,15.89
2023-04-28T16:01:01.070Z,15.79
2023-04-28T16:03:28.178Z,15.73
2023-04-28T16:05:55.695Z,15.63
2023-04-28T16:08:25.862Z,15.50
2023-04-28T16:10:52.915Z,15.34
2023-04-28T16:13:20.098Z,15.12
2023-04-28T16:15:49.531Z,14.82
2023-04-28T16:18:17.413Z,14.68
2023-04-28T16:20:44.707Z,14.68
2023-04-28T16:23:13.905Z,14.71
2023-04-28T16:25:43.706Z,14.65
2023-04-28T16:28:10.687Z,14.64
2023-04-28T16:30:37.855Z,14.59
2023-04-28T16:33:05.107Z,14.53
2023-04-28T16:35:32.715Z,14.49
2023-04-28T16:37:59.739Z,14.46
2023-04-28T16:40:27.032Z,14.38
2023-04-28T16:42:53.949Z,14.31
2023-04-28T16:45:20.918Z,14.21
2023-04-28T16:47:48.007Z,14.08
2023-04-28T16:50:15.032Z,14.01
2023-04-28T16:52:42.332Z,13.91
2023-04-28T16:55:09.831Z,13.80
2023-04-28T16:57:36.849Z,13.67
2023-04-28T17:00:05.036Z,13.53
2023-04-28T17:02:33.410Z,13.36
2023-04-28T17:05:00.682Z,13.20
2023-04-28T17:07:27.857Z,13.07
2023-04-28T17:09:54.809Z,12.96
2023-04-28T17:12:23.411Z,12.83
2023-04-28T17:14:54.026Z,12.63
2023-04-28T17:17:20.937Z,12.49
2023-04-28T17:19:48.140Z,12.34
2023-04-28T17:22:15.278Z,12.22
2023-04-28T17:24:43.972Z,12.10
2023-04-28T17:27:10.944Z,11.96
2023-04-28T17:29:37.849Z,11.83
2023-04-28T17:32:05.010Z,11.66
2023-04-28T17:34:31.977Z,11.52
2023-04-28T17:36:59.187Z,11.39
2023-04-28T17:39:26.801Z,11.25
2023-04-28T17:41:54.271Z,11.11
2023-04-28T17:44:21.226Z,10.98
2023-04-28T17:46:48.202Z,10.80
2023-04-28T17:49:15.209Z,10.63
2023-04-28T17:51:42.276Z,10.50
2023-04-28T17:54:09.699Z,10.35
2023-04-28T17:56:38.346Z,10.21
2023-04-28T17:59:06.130Z,10.03
2023-04-28T18:01:35.063Z,9.90
2023-04-28T18:04:02.144Z,9.77
2023-04-28T18:06:29.937Z,9.68
2023-04-28T18:08:57.031Z,9.51
2023-04-28T18:11:24.136Z,9.33
2023-04-28T18:13:51.200Z,9.17
2023-04-28T18:16:18.152Z,9.02
2023-04-28T18:18:45.312Z,8.93
2023-04-28T18:21:12.275Z,8.81
2023-04-28T18:23:40.107Z,8.70
2023-04-28T18:26:07.141Z,8.61
2023-04-28T18:28:34.534Z,8.51
2023-04-28T18:31:05.236Z,8.42
2023-04-28T18:33:32.683Z,8.33
2023-04-28T18:36:05.193Z,8.25
2023-04-28T18:38:35.124Z,8.14
2023-04-28T18:41:13.385Z,8.06
2023-04-28T18:43:40.947Z,7.95
2023-04-28T18:46:08.295Z,7.88
2023-04-28T18:48:35.539Z,7.80
2023-04-28T18:51:05.737Z,7.73
2023-04-28T18:53:33.030Z,7.65
2023-04-28T18:56:00.100Z,7.56
2023-04-28T18:58:28.079Z,7.44
2023-04-28T19:00:55.009Z,7.93
2023-04-28T19:03:22.916Z,8.64
2023-04-28T19:05:50.156Z,8.78
2023-04-28T19:08:17.140Z,8.68
2023-04-28T19:10:44.096Z,8.48
2023-04-28T19:13:11.048Z,8.26
2023-04-28T19:15:38.517Z,8.05
2023-04-28T19:18:05.698Z,7.86
2023-04-28T19:20:33.714Z,7.68
2023-04-28T19:23:03.843Z,7.56
2023-04-28T19:25:33.703Z,7.43
2023-04-28T19:28:01.205Z,7.29
2023-04-28T19:30:28.303Z,7.16
2023-04-28T19:32:55.561Z,7.02
2023-04-28T19:35:22.822Z,6.89
2023-04-28T19:37:50.305Z,7.34
2023-04-28T19:40:17.518Z,8.00
2023-04-28T19:42:44.584Z,8.15
2023-04-28T19:45:11.908Z,8.02
2023-04-28T19:47:39.608Z,7.76
2023-04-28T19:50:08.581Z,7.50
2023-04-28T19:52:35.660Z,7.29
2023-04-28T19:55:02.710Z,7.10
2023-04-28T19:57:30.078Z,6.92
2023-04-28T19:59:57.542Z,6.75
2023-04-28T20:02:24.708Z,6.57
2023-04-28T20:04:51.827Z,6.92
2023-04-28T20:07:19.060Z,7.53
2023-04-28T20:09:46.341Z,7.66
2023-04-28T20:12:13.595Z,7.49
2023-04-28T20:14:41.051Z,7.24
2023-04-28T20:17:09.149Z,6.98
2023-04-28T20:19:37.135Z,6.75
2023-04-28T20:22:07.673Z,6.56
2023-04-28T20:24:37.377Z,6.38
2023-04-28T20:27:04.884Z,6.21
2023-04-28T20:29:34.720Z,6.67
2023-04-28T20:32:02.676Z,7.31
2023-04-28T20:34:30.993Z,7.43
2023-04-28T20:36:59.666Z,7.28
2023-04-28T20:39:26.762Z,7.04
2023-04-28T20:41:53.999Z,6.78
2023-04-28T20:44:21.350Z,6.52
2023-04-28T20:46:48.564Z,6.27
2023-04-28T20:49:15.701Z,6.05
2023-04-28T20:51:44.150Z,5.84
2023-04-28T20:54:12.061Z,6.22
2023-04-28T20:56:39.075Z,6.80
2023-04-28T20:59:06.112Z,6.89
2023-04-28T21:01:33.270Z,6.73
2023-04-28T21:04:00.671Z,6.48
2023-04-28T21:06:27.764Z,6.24
2023-04-28T21:08:55.115Z,6.01
2023-04-28T21:11:22.149Z,5.77
2023-04-28T21:13:49.076Z,5.57
2023-04-28T21:16:20.697Z,5.38
2023-04-28T21:18:49.164Z,5.87
2023-04-28T21:21:16.800Z,6.50
2023-04-28T21:23:44.394Z,6.60
2023-04-28T21:26:11.641Z,6.43
2023-04-28T21:28:40.191Z,6.18
2023-04-28T21:31:07.944Z,5.94
2023-04-28T21:33:35.197Z,5.69
2023-04-28T21:36:08.139Z,5.49
2023-04-28T21:38:36.984Z,5.25
2023-04-28T21:41:04.120Z,5.72
2023-04-28T21:43:31.109Z,6.33
2023-04-28T21:45:58.482Z,6.44
2023-04-28T21:48:25.466Z,6.26
2023-04-28T21:50:52.664Z,5.99
2023-04-28T21:53:20.652Z,5.72
2023-04-28T21:55:48.069Z,5.47
2023-04-28T21:58:15.488Z,5.26
2023-04-28T22:00:43.997Z,5.05
2023-04-28T22:03:11.338Z,5.51
2023-04-28T22:05:40.357Z,6.13
2023-04-28T22:08:07.485Z,6.23
2023-04-28T22:10:34.830Z,6.04
2023-04-28T22:13:02.321Z,5.76
2023-04-28T22:15:29.672Z,5.46
2023-04-28T22:17:56.821Z,5.20
2023-04-28T22:20:24.144Z,4.96
2023-04-28T22:22:51.627Z,4.72
2023-04-28T22:25:18.696Z,5.10
2023-04-28T22:27:45.799Z,5.70
2023-04-28T22:30:13.548Z,5.78
2023-04-28T22:32:44.747Z,5.59
2023-04-28T22:35:16.866Z,5.30
2023-04-28T22:37:44.150Z,5.00
2023-04-28T22:40:11.372Z,4.74
2023-04-28T22:42:39.357Z,4.52
2023-04-28T22:45:07.173Z,4.28
2023-04-28T22:47:35.000Z,4.65
2023-04-28T22:50:05.860Z,5.24
2023-04-28T22:52:34.182Z,5.31
2023-04-28T22:55:01.461Z,5.14
2023-04-28T22:57:28.653Z,4.91
2023-04-28T22:59:56.064Z,4.66
2023-04-28T23:02:23.418Z,4.44
2023-04-28T23:04:51.085Z,4.19
2023-04-28T23:07:18.547Z,4.58
2023-04-28T23:09:45.647Z,5.15
2023-04-28T23:12:12.918Z,5.22
2023-04-28T23:14:40.004Z,5.05
2023-04-28T23:17:07.013Z,4.79
2023-04-28T23:19:39.398Z,4.51
2023-04-28T23:22:07.897Z,4.27
2023-04-28T23:24:37.352Z,4.06
2023-04-28T23:27:04.879Z,4.46
2023-04-28T23:29:32.995Z,5.02
2023-04-28T23:32:00.177Z,5.08
2023-04-28T23:34:27.320Z,4.91
2023-04-28T23:36:54.449Z,4.66
2023-04-28T23:39:21.437Z,4.38
2023-04-28T23:41:48.753Z,4.13
2023-04-28T23:44:15.890Z,3.91
2023-04-28T23:46:43.690Z,4.25
2023-04-28T23:49:11.318Z,4.83
2023-04-28T23:51:39.393Z,4.93
2023-04-28T23:54:06.515Z,4.76
2023-04-28T23:56:33.800Z,4.53
2023-04-28T23:59:01.195Z,4.28
